createdAt,value
2019-03-09T00:03:41.541Z,81.49
2019-03-09T00:06:13.527Z,81.48
2019-03-09T00:08:49.305Z,81.52
2019-03-09T00:11:19.578Z,81.50
2019-03-09T00:13:49.801Z,81.52
2019-03-09T00:19:02.288Z,81.78
2019-03-09T00:21:34.155Z,81.60
2019-03-09T00:24:23.282Z,81.60
2019-03-09T00:27:12.430Z,81.75
2019-03-09T00:30:01.535Z,81.28
2019-03-09T00:35:23.693Z,82.09
2019-03-09T00:38:11.236Z,81.56
2019-03-09T00:40:41.480Z,81.72
2019-03-09T00:43:11.723Z,81.90
2019-03-09T00:45:41.968Z,81.72
2019-03-09T00:48:12.217Z,81.84
2019-03-09T00:50:42.414Z,81.76
2019-03-09T00:53:12.680Z,81.66
2019-03-09T00:55:42.929Z,81.75
2019-03-09T00:58:13.163Z,81.95
2019-03-09T01:00:43.366Z,81.96
2019-03-09T01:03:13.717Z,82.14
2019-03-09T01:05:43.893Z,82.20
2019-03-09T01:08:14.193Z,82.09
2019-03-09T01:10:46.050Z,82.12
2019-03-09T01:15:58.581Z,82.23
2019-03-09T01:18:28.781Z,82.15
2019-03-09T01:20:58.978Z,82.01
2019-03-09T01:23:29.154Z,81.93
2019-03-09T01:25:59.453Z,81.57
2019-03-09T01:28:29.738Z,81.94
2019-03-09T01:30:59.984Z,81.89
2019-03-09T01:33:30.232Z,81.77
2019-03-09T01:36:00.530Z,81.71
2019-03-09T01:38:32.355Z,81.53
2019-03-09T01:41:02.567Z,81.50
2019-03-09T01:43:32.758Z,81.19
2019-03-09T01:46:02.948Z,81.26
2019-03-09T01:48:33.239Z,81.28
2019-03-09T01:51:03.504Z,81.22
2019-03-09T01:53:36.992Z,81.31
2019-03-09T01:56:16.889Z,81.39
2019-03-09T01:58:47.136Z,81.52
2019-03-09T02:01:17.346Z,81.48
2019-03-09T02:03:47.596Z,81.37
2019-03-09T02:06:17.796Z,81.09
2019-03-09T02:08:48.130Z,81.25
2019-03-09T02:11:18.502Z,81.33
2019-03-09T02:13:48.734Z,81.28
2019-03-09T02:16:18.970Z,81.11
2019-03-09T02:18:49.249Z,81.25
2019-03-09T02:21:19.464Z,81.37
2019-03-09T02:23:49.705Z,81.43
2019-03-09T02:26:19.954Z,81.46
2019-03-09T02:28:50.158Z,81.68
2019-03-09T02:31:20.484Z,81.69
2019-03-09T02:33:50.703Z,81.76
2019-03-09T02:36:20.913Z,81.87
2019-03-09T02:39:23.067Z,81.87
2019-03-09T02:41:53.319Z,81.97
2019-03-09T02:44:23.651Z,81.76
2019-03-09T02:46:53.904Z,81.83
2019-03-09T02:49:24.091Z,81.81
2019-03-09T02:51:54.377Z,81.65
2019-03-09T02:54:24.598Z,81.68
2019-03-09T02:56:54.793Z,81.77
2019-03-09T02:59:30.913Z,81.72
2019-03-09T03:02:20.051Z,81.52
2019-03-09T03:04:50.301Z,81.68
2019-03-09T03:07:20.520Z,81.59
2019-03-09T03:09:50.715Z,81.89
2019-03-09T03:12:20.888Z,81.78
2019-03-09T03:14:51.311Z,81.83
2019-03-09T03:17:21.545Z,81.53
2019-03-09T03:20:10.646Z,81.68
2019-03-09T03:22:40.947Z,81.75
2019-03-09T03:25:11.158Z,81.76
2019-03-09T03:27:41.365Z,81.60
2019-03-09T03:30:11.659Z,81.50
2019-03-09T03:32:41.917Z,81.44
2019-03-09T03:35:12.106Z,81.55
2019-03-09T03:37:42.396Z,81.57
2019-03-09T03:40:12.736Z,81.54
2019-03-09T03:42:42.898Z,81.46
2019-03-09T03:45:13.347Z,81.25
2019-03-09T03:47:43.521Z,81.51
2019-03-09T03:50:13.831Z,81.02
2019-03-09T03:52:44.072Z,81.13
2019-03-09T03:55:14.412Z,81.21
2019-03-09T03:57:44.676Z,81.27
2019-03-09T04:02:58.555Z,81.34
2019-03-09T04:05:28.844Z,81.39
2019-03-09T04:07:59.062Z,81.28
2019-03-09T04:13:31.487Z,81.20
2019-03-09T04:16:01.688Z,81.39
2019-03-09T04:18:32.003Z,81.44
2019-03-09T04:21:02.236Z,81.26
2019-03-09T04:23:32.498Z,81.33
2019-03-09T04:26:02.766Z,81.45
2019-03-09T04:28:33.056Z,81.54
2019-03-09T04:31:03.355Z,81.85
2019-03-09T04:33:35.224Z,81.75
2019-03-09T04:36:05.499Z,82.15
2019-03-09T04:39:00.350Z,82.31
2019-03-09T04:41:32.192Z,82.21
2019-03-09T04:44:02.417Z,82.10
2019-03-09T04:46:32.702Z,81.81
2019-03-09T04:49:02.958Z,82.10
2019-03-09T04:51:33.199Z,81.74
2019-03-09T04:56:52.666Z,82.00
2019-03-09T04:59:22.895Z,82.04
2019-03-09T05:01:53.190Z,81.90
2019-03-09T05:04:43.433Z,82.10
2019-03-09T05:07:17.007Z,82.15
2019-03-09T05:09:55.391Z,82.09
2019-03-09T05:12:25.605Z,81.92
2019-03-09T05:14:55.789Z,81.67
2019-03-09T05:17:25.970Z,81.92
2019-03-09T05:19:56.236Z,82.11
2019-03-09T05:22:26.468Z,82.38
2019-03-09T05:24:58.289Z,82.58
2019-03-09T05:27:28.531Z,82.61
2019-03-09T05:30:06.770Z,82.55
2019-03-09T05:32:37.208Z,82.66
2019-03-09T05:35:07.540Z,82.48
2019-03-09T05:40:33.073Z,83.19
2019-03-09T05:43:03.365Z,82.86
2019-03-09T05:45:33.666Z,83.19
2019-03-09T05:48:04.157Z,83.39
2019-03-09T05:50:34.357Z,83.15
2019-03-09T05:53:10.678Z,83.09
2019-03-09T05:58:30.352Z,82.67
2019-03-09T06:01:00.777Z,83.35
2019-03-09T06:03:31.229Z,83.11
2019-03-09T06:08:56.273Z,83.04
2019-03-09T06:11:45.807Z,83.48
2019-03-09T06:14:18.779Z,83.42
2019-03-09T06:16:49.523Z,83.37
2019-03-09T06:19:20.064Z,82.77
2019-03-09T06:24:36.079Z,82.88
2019-03-09T06:27:06.835Z,82.66
2019-03-09T06:29:37.613Z,82.52
2019-03-09T06:35:05.150Z,82.90
2019-03-09T06:37:35.796Z,82.66
2019-03-09T06:40:06.854Z,82.60
2019-03-09T06:42:56.455Z,82.42
2019-03-09T06:45:26.946Z,82.46
2019-03-09T06:48:16.679Z,82.08
2019-03-09T06:53:52.943Z,82.59
2019-03-09T06:56:23.515Z,82.42
2019-03-09T06:58:54.257Z,82.36
2019-03-09T07:10:39.684Z,82.40
2019-03-09T07:13:11.035Z,82.35
2019-03-09T07:15:43.770Z,82.13
2019-03-09T07:18:34.745Z,81.75
2019-03-09T07:23:48.145Z,82.59
2019-03-09T07:31:48.949Z,82.90
2019-03-09T07:34:38.515Z,83.38
2019-03-09T07:40:00.165Z,82.37
2019-03-09T07:45:21.747Z,82.14
2019-03-09T07:48:31.600Z,82.36
2019-03-09T07:51:02.214Z,81.84
2019-03-09T07:53:32.729Z,81.83
2019-03-09T07:56:03.457Z,82.35
2019-03-09T07:58:34.032Z,81.61
2019-03-09T08:01:05.034Z,80.82
2019-03-09T08:06:25.251Z,80.60
2019-03-09T08:08:55.873Z,80.76
2019-03-09T08:11:26.274Z,80.64
2019-03-09T08:13:56.946Z,81.47
2019-03-09T08:16:35.564Z,80.57
2019-03-09T08:19:18.899Z,80.22
2019-03-09T08:21:49.736Z,78.97
2019-03-09T08:24:20.315Z,80.17
2019-03-09T08:27:10.291Z,80.24
2019-03-09T08:29:40.880Z,79.64
2019-03-09T08:32:11.810Z,80.19
2019-03-09T08:34:43.070Z,80.40
2019-03-09T08:37:14.203Z,79.95
2019-03-09T08:40:04.522Z,80.18
2019-03-09T08:42:54.202Z,79.73
2019-03-09T08:45:25.393Z,80.20
2019-03-09T08:48:17.332Z,80.10
2019-03-09T08:50:48.273Z,79.80
2019-03-09T08:53:19.453Z,80.25
2019-03-09T08:58:35.086Z,79.99
2019-03-09T09:01:42.332Z,80.07
2019-03-09T09:04:34.786Z,77.81
2019-03-09T09:07:17.601Z,79.04
2019-03-09T09:10:09.723Z,78.75
2019-03-09T09:12:40.902Z,79.63
2019-03-09T09:15:33.935Z,78.88
2019-03-09T09:18:04.844Z,78.36
2019-03-09T09:20:36.208Z,76.84
2019-03-09T09:23:07.077Z,77.87
2019-03-09T09:25:37.985Z,78.28
2019-03-09T09:30:52.734Z,80.64
2019-03-09T09:33:42.703Z,76.67
2019-03-09T09:36:13.520Z,80.92
2019-03-09T09:39:23.620Z,80.32
2019-03-09T09:42:14.657Z,78.47
2019-03-09T09:47:36.929Z,78.73
2019-03-09T09:50:08.959Z,74.59
2019-03-09T09:55:32.265Z,74.21
2019-03-09T09:58:03.157Z,78.78
2019-03-09T10:00:35.391Z,71.44
2019-03-09T10:03:06.240Z,74.80
2019-03-09T10:05:37.493Z,76.32
2019-03-09T10:10:58.042Z,77.25
2019-03-09T10:13:29.240Z,75.29
2019-03-09T10:16:00.544Z,77.89
2019-03-09T10:18:31.848Z,77.93
2019-03-09T10:21:03.670Z,76.10
2019-03-09T10:23:37.169Z,76.48
2019-03-09T10:26:09.850Z,74.38
2019-03-09T10:28:42.326Z,77.06
2019-03-09T10:31:13.642Z,77.46
2019-03-09T10:33:45.101Z,77.16
2019-03-09T10:36:16.040Z,74.95
2019-03-09T10:38:46.914Z,74.99
2019-03-09T10:41:38.502Z,74.65
2019-03-09T10:44:10.195Z,73.02
2019-03-09T10:47:02.102Z,73.37
2019-03-09T10:49:33.826Z,74.01
2019-03-09T10:55:18.973Z,74.30
2019-03-09T11:01:03.439Z,72.91
2019-03-09T11:06:41.363Z,74.03
2019-03-09T11:11:56.496Z,74.46
2019-03-09T11:17:43.953Z,72.91
2019-03-09T11:23:34.570Z,72.42
2019-03-09T11:26:12.032Z,73.86
2019-03-09T11:28:42.685Z,69.74
2019-03-09T11:31:13.310Z,68.95
2019-03-09T11:33:44.425Z,66.75
2019-03-09T11:36:17.678Z,67.05
2019-03-09T11:38:48.615Z,66.38
2019-03-09T11:41:21.090Z,66.89
2019-03-09T11:43:51.867Z,65.30
2019-03-09T11:46:43.422Z,66.04
2019-03-09T11:49:14.527Z,66.73
2019-03-09T11:51:45.040Z,66.05
2019-03-09T11:54:17.910Z,66.02
2019-03-09T11:56:49.016Z,66.22
2019-03-09T11:59:31.415Z,66.36
2019-03-09T12:02:02.095Z,65.66
2019-03-09T12:04:32.758Z,65.96
2019-03-09T12:07:03.269Z,66.20
2019-03-09T12:09:35.441Z,65.70
2019-03-09T12:12:06.210Z,65.99
2019-03-09T12:14:37.017Z,65.87
2019-03-09T12:19:51.559Z,65.72
2019-03-09T12:22:41.180Z,64.36
2019-03-09T12:25:11.977Z,65.60
2019-03-09T12:27:42.692Z,64.89
2019-03-09T12:33:16.882Z,65.22
2019-03-09T12:35:48.982Z,64.06
2019-03-09T12:38:19.691Z,64.37
2019-03-09T12:43:33.218Z,64.69
2019-03-09T12:48:53.186Z,66.45
2019-03-09T12:51:23.658Z,65.10
2019-03-09T12:53:54.149Z,65.54
2019-03-09T12:56:24.854Z,65.57
2019-03-09T12:58:55.416Z,64.17
2019-03-09T13:04:15.212Z,64.38
2019-03-09T13:07:10.916Z,64.11
2019-03-09T13:09:41.580Z,64.75
2019-03-09T13:12:12.407Z,64.80
2019-03-09T13:14:42.967Z,64.73
2019-03-09T13:19:55.118Z,64.23
2019-03-09T13:35:24.262Z,65.66
2019-03-09T13:38:14.778Z,64.33
2019-03-09T13:47:37.485Z,64.85
2019-03-09T13:50:28.372Z,63.82
2019-03-09T13:53:17.647Z,65.04
2019-03-09T13:56:13.161Z,65.42
2019-03-09T13:59:05.379Z,65.63
2019-03-09T14:04:41.358Z,65.89
2019-03-09T14:07:13.440Z,66.24
2019-03-09T14:09:44.130Z,66.00
2019-03-09T14:12:14.718Z,66.14
2019-03-09T14:14:45.381Z,66.27
2019-03-09T14:17:35.727Z,66.40
2019-03-09T14:20:12.108Z,66.41
2019-03-09T14:22:42.983Z,66.24
2019-03-09T14:25:32.616Z,66.46
2019-03-09T14:28:03.658Z,66.57
2019-03-09T14:30:34.138Z,66.61
2019-03-09T14:33:04.281Z,66.84
2019-03-09T14:35:34.556Z,66.77
2019-03-09T14:38:04.705Z,67.08
2019-03-09T14:40:34.990Z,67.56
2019-03-09T14:46:06.575Z,67.85
2019-03-09T14:48:36.849Z,68.88
2019-03-09T14:51:08.227Z,69.35
2019-03-09T14:53:56.154Z,69.49
2019-03-09T14:59:13.127Z,70.36
2019-03-09T15:01:43.431Z,70.78
2019-03-09T15:04:13.753Z,71.04
2019-03-09T15:06:46.689Z,71.10
2019-03-09T15:09:18.576Z,71.53
2019-03-09T15:12:07.849Z,72.00
2019-03-09T15:14:43.235Z,71.94
2019-03-09T15:17:13.363Z,71.93
2019-03-09T15:20:03.543Z,72.35
2019-03-09T15:22:33.930Z,72.71
2019-03-09T15:26:20.666Z,73.02
2019-03-09T15:34:07.483Z,74.08
2019-03-09T15:42:37.832Z,74.28
2019-03-09T15:51:33.920Z,74.59
2019-03-09T15:59:49.464Z,74.62
2019-03-09T16:02:31.390Z,75.00
2019-03-09T16:05:13.223Z,74.75
2019-03-09T16:07:43.465Z,74.69
2019-03-09T16:10:14.521Z,74.48
2019-03-09T16:12:44.718Z,74.57
2019-03-09T16:15:15.264Z,74.42
2019-03-09T16:18:04.823Z,74.65
2019-03-09T16:26:42.336Z,74.21
2019-03-09T16:29:38.691Z,74.36
2019-03-09T16:32:47.063Z,74.21
2019-03-09T16:35:17.780Z,75.10
2019-03-09T16:37:47.987Z,74.85
2019-03-09T16:40:29.349Z,75.10
2019-03-09T16:42:59.674Z,74.65
2019-03-09T16:48:27.380Z,75.39
2019-03-09T16:50:58.653Z,75.52
2019-03-09T16:54:08.447Z,75.20
2019-03-09T16:56:52.298Z,75.46
2019-03-09T16:59:24.278Z,75.71
2019-03-09T17:02:12.875Z,76.02
2019-03-09T17:04:43.813Z,76.28
2019-03-09T17:07:14.720Z,76.19
2019-03-09T17:15:44.663Z,76.30
2019-03-09T17:18:15.257Z,76.37
2019-03-09T17:20:45.838Z,76.21
2019-03-09T17:23:16.786Z,75.95
2019-03-09T17:25:47.343Z,76.18
2019-03-09T17:31:07.427Z,76.24
2019-03-09T17:33:38.363Z,76.25
2019-03-09T17:36:08.970Z,75.90
2019-03-09T17:38:39.796Z,75.61
2019-03-09T17:43:54.000Z,75.38
2019-03-09T17:46:24.941Z,75.26
2019-03-09T17:48:55.911Z,75.27
2019-03-09T17:51:26.523Z,75.27
2019-03-09T17:59:45.728Z,75.34
2019-03-09T18:02:16.237Z,75.77
2019-03-09T18:05:12.414Z,75.44
2019-03-09T18:11:02.963Z,75.22
2019-03-09T18:13:33.403Z,75.30
2019-03-09T18:16:03.910Z,75.34
2019-03-09T18:18:35.275Z,75.38
2019-03-09T18:21:05.933Z,75.48
2019-03-09T18:23:36.623Z,75.44
2019-03-09T18:29:09.388Z,75.42
2019-03-09T18:31:39.967Z,75.23
2019-03-09T18:34:10.683Z,75.18
2019-03-09T18:36:41.251Z,75.18
2019-03-09T18:39:11.857Z,75.12
2019-03-09T18:41:42.361Z,75.10
2019-03-09T18:44:14.697Z,75.09
2019-03-09T18:49:44.106Z,75.10
2019-03-09T18:52:50.525Z,75.10
2019-03-09T18:55:20.653Z,75.06
2019-03-09T18:57:50.829Z,75.06
2019-03-09T19:00:21.277Z,75.24
2019-03-09T19:02:51.381Z,75.21
2019-03-09T19:05:21.565Z,75.25
2019-03-09T19:07:51.887Z,75.20
2019-03-09T19:10:22.077Z,75.25
2019-03-09T19:12:52.258Z,75.28
2019-03-09T19:15:22.437Z,75.37
2019-03-09T19:18:11.791Z,75.49
2019-03-09T19:21:02.796Z,75.53
2019-03-09T19:23:46.361Z,75.68
2019-03-09T19:26:28.839Z,75.65
2019-03-09T19:29:21.469Z,75.87
2019-03-09T19:32:18.175Z,75.87
2019-03-09T19:40:17.924Z,76.04
2019-03-09T19:45:57.721Z,76.05
2019-03-09T19:48:47.438Z,76.07
2019-03-09T19:54:30.625Z,75.94
2019-03-09T20:00:31.518Z,76.15
2019-03-09T20:06:19.594Z,76.02
2019-03-09T20:23:59.886Z,76.70
2019-03-09T20:26:51.630Z,76.75
2019-03-09T20:29:45.316Z,76.87
2019-03-09T20:32:39.347Z,76.91
2019-03-09T20:35:34.912Z,77.18
2019-03-09T20:38:26.938Z,77.39
2019-03-09T20:41:18.211Z,77.16
2019-03-09T20:44:28.077Z,77.70
2019-03-09T20:47:17.496Z,78.10
2019-03-09T20:49:49.365Z,77.96
2019-03-09T20:52:49.761Z,78.04
2019-03-09T20:55:20.163Z,77.96
2019-03-09T21:00:42.206Z,78.58
2019-03-09T21:06:20.906Z,78.40
2019-03-09T21:11:37.839Z,78.44
2019-03-09T21:14:08.084Z,78.48
2019-03-09T21:19:25.930Z,78.16
2019-03-09T21:21:56.351Z,78.05
2019-03-09T21:32:59.025Z,78.00
2019-03-09T21:35:29.247Z,77.84
2019-03-09T21:37:59.758Z,77.88
2019-03-09T21:40:30.067Z,78.00
2019-03-09T21:43:00.406Z,77.82
2019-03-09T21:45:30.786Z,77.74
2019-03-09T21:48:00.886Z,77.70
2019-03-09T21:50:31.068Z,77.82
2019-03-09T21:53:01.222Z,77.91
2019-03-09T21:55:31.404Z,78.05
2019-03-09T21:58:01.545Z,78.14
2019-03-09T22:00:31.642Z,77.94
2019-03-09T22:03:01.755Z,77.85
2019-03-09T22:05:31.939Z,77.93
2019-03-09T22:13:54.594Z,78.25
2019-03-09T22:19:13.477Z,78.27
2019-03-09T22:21:44.251Z,78.20
2019-03-09T22:24:35.188Z,78.10
2019-03-09T22:27:26.312Z,77.79
2019-03-09T22:30:17.430Z,78.43
2019-03-09T22:35:51.179Z,78.75
2019-03-09T22:38:55.997Z,78.48
2019-03-09T22:46:45.516Z,78.26
2019-03-09T22:49:15.752Z,78.46
2019-03-09T22:51:45.909Z,78.06
2019-03-09T22:54:16.066Z,77.98
2019-03-09T22:56:46.181Z,77.65
2019-03-09T22:59:16.314Z,77.47
2019-03-09T23:01:46.405Z,77.65
2019-03-09T23:04:16.557Z,77.71
2019-03-09T23:09:36.781Z,77.96
2019-03-09T23:15:11.349Z,77.61
2019-03-09T23:21:27.003Z,77.80
2019-03-09T23:27:00.208Z,77.67
2019-03-09T23:29:54.487Z,77.58
2019-03-09T23:35:09.277Z,77.14
2019-03-09T23:37:58.947Z,77.56
